createdAt,value
2022-08-05T00:01:28.427Z,66.21
2022-08-05T00:06:33.538Z,66.50
2022-08-05T00:11:48.240Z,66.78
2022-08-05T00:16:54.030Z,66.85
2022-08-05T00:21:57.616Z,66.78
2022-08-05T00:27:01.004Z,66.75
2022-08-05T00:32:15.010Z,66.61
2022-08-05T00:37:21.860Z,66.87
2022-08-05T00:42:37.096Z,66.89
2022-08-05T00:47:57.188Z,67.20
2022-08-05T00:53:09.877Z,67.38
2022-08-05T00:58:27.728Z,67.35
2022-08-05T01:03:33.492Z,67.27
2022-08-05T01:08:43.207Z,67.35
2022-08-05T01:13:59.964Z,67.41
2022-08-05T01:20:00.723Z,67.35
2022-08-05T01:25:39.998Z,67.53
2022-08-05T01:31:05.181Z,67.68
2022-08-05T01:36:16.072Z,67.73
2022-08-05T01:41:25.704Z,67.54
2022-08-05T01:46:42.442Z,67.87
2022-08-05T01:51:51.840Z,68.00
2022-08-05T01:58:18.880Z,67.99
2022-08-05T02:02:25.982Z,68.10
2022-08-05T02:07:32.454Z,68.17
2022-08-05T02:12:58.339Z,68.17
2022-08-05T02:18:32.588Z,68.06
2022-08-05T02:23:40.513Z,68.01
2022-08-05T02:28:46.064Z,68.02
2022-08-05T02:33:57.389Z,68.20
2022-08-05T02:39:03.231Z,68.33
2022-08-05T02:44:11.962Z,68.25
2022-08-05T02:49:17.618Z,68.56
2022-08-05T02:54:34.876Z,68.53
2022-08-05T02:59:50.231Z,68.54
2022-08-05T03:05:00.909Z,68.62
2022-08-05T03:10:04.580Z,68.80
2022-08-05T03:15:12.631Z,68.77
2022-08-05T03:20:15.783Z,68.94
2022-08-05T03:25:33.268Z,68.87
2022-08-05T03:30:47.711Z,69.17
2022-08-05T03:35:51.728Z,69.00
2022-08-05T03:40:55.159Z,69.10
2022-08-05T03:46:04.129Z,69.50
2022-08-05T03:52:36.992Z,69.64
2022-08-05T03:56:47.911Z,69.91
2022-08-05T04:01:59.102Z,69.95
2022-08-05T04:07:03.945Z,69.68
2022-08-05T04:12:23.568Z,69.42
2022-08-05T04:17:55.879Z,69.23
2022-08-05T04:22:53.935Z,69.71
2022-08-05T04:27:59.702Z,69.36
2022-08-05T04:33:08.664Z,69.48
2022-08-05T04:38:11.852Z,69.67
2022-08-05T04:43:22.023Z,69.41
2022-08-05T04:48:27.396Z,68.66
2022-08-05T04:53:33.408Z,67.22
2022-08-05T04:58:38.458Z,65.82
2022-08-05T05:03:42.158Z,64.47
2022-08-05T05:08:45.841Z,63.69
2022-08-05T05:13:53.300Z,63.11
2022-08-05T05:19:18.941Z,62.51
2022-08-05T05:24:21.915Z,61.55
2022-08-05T05:29:25.035Z,61.08
2022-08-05T05:34:48.053Z,60.33
2022-08-05T05:39:55.460Z,59.48
2022-08-05T05:44:59.646Z,59.04
2022-08-05T05:50:06.674Z,58.71
2022-08-05T05:55:15.001Z,58.35
2022-08-05T06:00:21.787Z,58.27
2022-08-05T06:05:34.697Z,58.64
2022-08-05T06:10:52.523Z,58.30
2022-08-05T06:16:29.591Z,57.69
2022-08-05T06:21:19.132Z,57.14
2022-08-05T06:26:24.947Z,56.83
2022-08-05T06:31:30.470Z,57.63
2022-08-05T06:36:57.678Z,57.57
2022-08-05T06:42:03.874Z,57.29
2022-08-05T06:47:10.326Z,57.04
2022-08-05T06:52:37.067Z,56.95
2022-08-05T06:57:57.303Z,57.17
2022-08-05T07:03:09.782Z,56.42
2022-08-05T07:08:13.242Z,56.71
2022-08-05T07:13:56.781Z,56.72
2022-08-05T07:18:57.723Z,56.59
2022-08-05T07:24:02.520Z,56.21
2022-08-05T07:29:05.967Z,56.00
2022-08-05T07:34:13.889Z,55.87
2022-08-05T07:39:50.342Z,55.23
2022-08-05T07:44:40.065Z,55.28
2022-08-05T07:49:54.291Z,55.55
2022-08-05T07:54:57.902Z,55.51
2022-08-05T08:00:01.991Z,54.80
2022-08-05T08:05:08.274Z,55.25
2022-08-05T08:10:14.632Z,55.23
2022-08-05T08:16:35.841Z,54.90
2022-08-05T08:21:02.342Z,54.88
2022-08-05T08:26:07.079Z,54.05
2022-08-05T08:31:14.925Z,53.44
2022-08-05T08:36:38.778Z,53.33
2022-08-05T08:42:00.148Z,52.99
2022-08-05T08:47:47.048Z,52.69
2022-08-05T08:52:33.516Z,52.19
2022-08-05T08:57:48.162Z,52.67
2022-08-05T09:02:53.483Z,52.72
2022-08-05T09:07:57.353Z,53.45
2022-08-05T09:13:05.203Z,51.95
2022-08-05T09:18:13.381Z,52.35
2022-08-05T09:23:21.696Z,52.79
2022-08-05T09:28:31.959Z,51.64
2022-08-05T09:33:50.895Z,52.69
2022-08-05T09:39:18.472Z,52.79
2022-08-05T09:44:41.376Z,51.11
2022-08-05T09:50:01.959Z,51.40
2022-08-05T09:55:58.036Z,51.60
2022-08-05T10:00:31.495Z,51.52
2022-08-05T10:05:36.312Z,51.45
2022-08-05T10:10:54.518Z,50.69
2022-08-05T10:16:00.592Z,50.55
2022-08-05T10:21:11.927Z,51.48
2022-08-05T10:26:24.157Z,51.27
2022-08-05T10:32:53.045Z,51.67
2022-08-05T10:36:54.129Z,51.25
2022-08-05T10:42:18.591Z,52.21
2022-08-05T10:47:34.428Z,51.47
2022-08-05T10:52:58.486Z,50.92
2022-08-05T10:58:14.910Z,51.83
2022-08-05T11:03:23.239Z,50.93
2022-08-05T11:08:39.090Z,51.11
2022-08-05T11:13:54.798Z,51.06
2022-08-05T11:20:11.435Z,50.48
2022-08-05T11:26:05.896Z,49.63
2022-08-05T11:31:06.333Z,50.44
2022-08-05T11:36:11.519Z,48.97
2022-08-05T11:41:54.827Z,49.05
2022-08-05T11:46:58.728Z,49.95
2022-08-05T11:52:11.713Z,49.16
2022-08-05T11:57:25.003Z,48.50
2022-08-05T12:02:33.435Z,48.04
2022-08-05T12:08:08.264Z,47.77
2022-08-05T12:13:17.466Z,47.54
2022-08-05T12:18:34.595Z,47.84
2022-08-05T12:23:54.719Z,47.29
2022-08-05T12:28:57.778Z,46.96
2022-08-05T12:34:09.271Z,47.64
2022-08-05T12:39:34.758Z,47.67
2022-08-05T12:44:43.188Z,45.67
2022-08-05T12:50:04.339Z,45.09
2022-08-05T12:55:25.339Z,46.37
2022-08-05T13:02:03.964Z,44.45
2022-08-05T13:05:56.429Z,44.95
2022-08-05T13:11:02.263Z,45.29
2022-08-05T13:16:15.347Z,44.56
2022-08-05T13:21:20.423Z,43.90
2022-08-05T13:26:29.856Z,44.00
2022-08-05T13:31:33.847Z,44.82
2022-08-05T13:37:07.103Z,44.38
2022-08-05T13:42:15.005Z,42.63
2022-08-05T13:47:34.702Z,42.29
2022-08-05T13:52:39.457Z,42.63
2022-08-05T13:57:50.988Z,41.93
2022-08-05T14:03:01.141Z,41.73
2022-08-05T14:08:20.232Z,42.02
2022-08-05T14:13:25.619Z,41.27
2022-08-05T14:18:31.749Z,41.96
2022-08-05T14:23:37.285Z,42.21
2022-08-05T14:28:51.893Z,40.38
2022-08-05T14:33:59.592Z,40.14
2022-08-05T14:39:05.964Z,40.14
2022-08-05T14:44:20.585Z,36.50
2022-08-05T14:49:56.370Z,37.78
2022-08-05T14:54:57.671Z,39.10
2022-08-05T15:00:11.670Z,38.55
2022-08-05T15:05:18.341Z,38.41
2022-08-05T15:10:28.741Z,39.25
2022-08-05T15:15:55.505Z,38.13
2022-08-05T15:20:59.036Z,37.62
2022-08-05T15:26:11.121Z,38.24
2022-08-05T15:31:16.764Z,39.87
2022-08-05T15:36:24.471Z,40.93
2022-08-05T15:41:57.729Z,41.75
2022-08-05T15:46:57.301Z,41.36
2022-08-05T15:52:10.083Z,41.84
2022-08-05T15:57:21.010Z,41.62
2022-08-05T16:02:27.707Z,41.89
2022-08-05T16:07:35.434Z,42.93
2022-08-05T16:12:38.494Z,42.46
2022-08-05T16:17:41.503Z,43.28
2022-08-05T16:22:44.499Z,42.31
2022-08-05T16:28:02.115Z,42.85
2022-08-05T16:33:09.290Z,43.40
2022-08-05T16:38:23.851Z,44.68
2022-08-05T16:43:32.687Z,44.97
2022-08-05T16:48:39.162Z,45.36
2022-08-05T16:54:04.111Z,45.12
2022-08-05T16:59:11.042Z,45.41
2022-08-05T17:04:18.744Z,45.66
2022-08-05T17:09:23.202Z,45.35
2022-08-05T17:14:36.720Z,46.11
2022-08-05T17:19:45.290Z,46.46
2022-08-05T17:24:57.921Z,46.90
2022-08-05T17:30:12.028Z,47.33
2022-08-05T17:35:22.230Z,46.90
2022-08-05T17:40:25.333Z,47.18
2022-08-05T17:45:37.962Z,47.16
2022-08-05T17:50:42.000Z,46.97
2022-08-05T17:55:47.526Z,47.78
2022-08-05T18:00:52.048Z,48.58
2022-08-05T18:06:04.235Z,49.15
2022-08-05T18:11:07.306Z,49.56
2022-08-05T18:16:13.526Z,49.52
2022-08-05T18:21:21.387Z,49.70
2022-08-05T18:26:32.005Z,50.10
2022-08-05T18:31:36.156Z,50.99
2022-08-05T18:36:39.483Z,52.01
2022-08-05T18:41:57.003Z,52.40
2022-08-05T18:47:12.190Z,52.70
2022-08-05T18:52:52.293Z,53.35
2022-08-05T18:58:04.138Z,53.82
2022-08-05T19:03:09.065Z,54.56
2022-08-05T19:08:15.867Z,55.07
2022-08-05T19:13:21.853Z,55.70
2022-08-05T19:18:27.611Z,56.16
2022-08-05T19:24:05.634Z,56.42
2022-08-05T19:28:56.126Z,56.08
2022-08-05T19:33:59.899Z,56.45
2022-08-05T19:39:19.556Z,56.33
2022-08-05T19:44:24.784Z,56.74
2022-08-05T19:49:32.363Z,57.51
2022-08-05T19:54:36.882Z,58.35
2022-08-05T20:00:01.247Z,58.73
2022-08-05T20:05:09.744Z,59.33
2022-08-05T20:10:24.441Z,59.02
2022-08-05T20:15:52.662Z,58.67
2022-08-05T20:20:59.880Z,59.33
2022-08-05T20:26:06.800Z,59.16
2022-08-05T20:31:09.981Z,58.77
2022-08-05T20:36:16.446Z,59.08
2022-08-05T20:41:24.251Z,59.50
2022-08-05T20:46:30.955Z,59.62
2022-08-05T20:51:35.010Z,60.22
2022-08-05T20:56:42.529Z,60.41
2022-08-05T21:01:46.165Z,60.46
2022-08-05T21:06:50.287Z,60.71
2022-08-05T21:12:09.345Z,60.61
2022-08-05T21:17:17.194Z,60.80
2022-08-05T21:22:23.380Z,61.12
2022-08-05T21:27:27.468Z,61.37
2022-08-05T21:32:33.518Z,61.57
2022-08-05T21:37:41.080Z,61.81
2022-08-05T21:42:45.789Z,62.10
2022-08-05T21:47:56.628Z,62.32
2022-08-05T21:53:04.319Z,62.47
2022-08-05T21:58:14.832Z,62.32
2022-08-05T22:03:52.003Z,62.54
2022-08-05T22:08:44.516Z,62.80
2022-08-05T22:14:05.829Z,63.11
2022-08-05T22:19:56.169Z,63.44
2022-08-05T22:24:59.594Z,63.67
2022-08-05T22:30:03.656Z,63.57
2022-08-05T22:35:07.981Z,63.95
2022-08-05T22:40:36.920Z,64.05
2022-08-05T22:45:58.497Z,64.23
2022-08-05T22:51:06.987Z,64.36
2022-08-05T22:56:10.496Z,64.57
2022-08-05T23:01:16.403Z,64.58
2022-08-05T23:06:19.433Z,64.66
2022-08-05T23:11:29.294Z,65.00
2022-08-05T23:16:55.567Z,65.07
2022-08-05T23:21:58.600Z,65.19
2022-08-05T23:27:01.695Z,65.23
2022-08-05T23:32:05.543Z,65.24
2022-08-05T23:37:08.626Z,65.32
2022-08-05T23:42:23.407Z,65.69
2022-08-05T23:47:33.811Z,65.76
2022-08-05T23:52:49.705Z,65.69
2022-08-05T23:57:53.779Z,65.87
